Time;durP1;ratioP1;P1;durP2;ratioP2;P2;SDS_P1;SDS_P2;PMS_P1;PMS_P2;Temp;Humidity;BMP_temperature;BMP_pressure;BME280_temperature;BME280_humidity;BME280_pressure;Samples;Min_cycle;Max_cycle;Signal;HPM_P1;HPM_P2
2022/04/03 00:00:33;;;;;;;4.10;2.20;;;0.10;99.90;;;;;;5049136;28;20085;-35
2022/04/03 00:03:04;;;;;;;4.20;2.03;;;0.10;99.90;;;;;;5048028;28;20048;-35
2022/04/03 00:05:33;;;;;;;5.10;2.15;;;0.20;99.90;;;;;;5049378;28;20053;-35
2022/04/03 00:07:59;;;;;;;3.50;2.30;;;0.20;99.90;;;;;;5033290;28;20061;-33
2022/04/03 00:10:24;;;;;;;5.40;2.70;;;0.20;99.90;;;;;;5053140;28;20079;-32
2022/04/03 00:12:50;;;;;;;6.43;2.87;;;0.30;99.90;;;;;;5048035;28;20064;-33
2022/04/03 00:15:17;;;;;;;7.07;2.87;;;0.30;99.90;;;;;;5051389;28;20085;-35
2022/04/03 00:17:43;;;;;;;6.30;2.83;;;0.30;99.90;;;;;;5034265;28;20051;-33
2022/04/03 00:20:11;;;;;;;6.73;2.70;;;0.40;99.90;;;;;;5051556;28;20040;-34
2022/04/03 00:22:36;;;;;;;7.43;2.70;;;0.40;99.90;;;;;;5050110;28;20041;-31
2022/04/03 00:25:03;;;;;;;7.10;2.53;;;0.40;99.90;;;;;;5051272;28;20040;-33
2022/04/03 00:27:29;;;;;;;4.87;2.10;;;0.40;99.90;;;;;;5030976;28;20052;-35
2022/04/03 00:29:55;;;;;;;3.80;2.43;;;0.40;99.90;;;;;;5048474;28;20037;-33
2022/04/03 00:32:21;;;;;;;6.17;2.47;;;0.50;99.90;;;;;;5046555;28;20076;-32
2022/04/03 00:34:47;;;;;;;6.27;2.20;;;0.50;99.90;;;;;;5048171;28;20131;-32
2022/04/03 00:37:13;;;;;;;5.23;2.47;;;0.50;99.90;;;;;;5031601;28;20127;-35
2022/04/03 00:39:39;;;;;;;4.50;2.30;;;0.50;99.90;;;;;;5051051;28;20048;-32
2022/04/03 00:42:08;;;;;;;6.23;2.50;;;0.60;99.90;;;;;;5052567;28;20063;-34
2022/04/03 00:44:35;;;;;;;5.37;2.60;;;0.60;99.90;;;;;;5050692;28;20819;-32
2022/04/03 00:47:05;;;;;;;3.87;2.00;;;0.60;99.90;;;;;;5037465;28;20107;-32
2022/04/03 00:49:31;;;;;;;6.87;2.27;;;0.50;99.90;;;;;;5050342;28;20136;-32
2022/04/03 00:51:58;;;;;;;6.53;2.00;;;0.50;99.90;;;;;;5054275;28;20146;-34
2022/04/03 00:54:24;;;;;;;4.30;2.23;;;0.50;99.90;;;;;;5053968;28;20048;-33
2022/04/03 00:56:51;;;;;;;4.87;2.10;;;0.50;99.90;;;;;;5036481;28;20506;-35
2022/04/03 00:59:17;;;;;;;5.87;1.83;;;0.50;99.90;;;;;;5053326;28;20126;-32
2022/04/03 01:01:44;;;;;;;3.47;1.93;;;0.50;99.90;;;;;;5051630;28;20123;-33
2022/04/03 01:04:10;;;;;;;6.30;2.20;;;0.50;99.90;;;;;;5045695;28;20045;-35
2022/04/03 01:06:36;;;;;;;6.93;1.90;;;0.50;99.90;;;;;;5039902;28;20408;-33
2022/04/03 01:09:03;;;;;;;4.33;1.80;;;0.50;99.90;;;;;;5050357;28;20044;-32
2022/04/03 01:11:29;;;;;;;5.10;2.10;;;0.50;99.90;;;;;;5055491;28;20048;-35
2022/04/03 01:13:55;;;;;;;7.43;2.00;;;0.50;99.90;;;;;;5050910;28;20062;-34
2022/04/03 01:16:21;;;;;;;4.43;2.20;;;0.50;99.90;;;;;;5039358;28;20045;-35
2022/04/03 01:18:47;;;;;;;5.30;2.17;;;0.50;99.90;;;;;;5048153;28;20055;-32
2022/04/03 01:21:14;;;;;;;6.03;1.73;;;0.50;99.90;;;;;;5054166;28;20044;-33
2022/04/03 01:23:40;;;;;;;4.77;1.90;;;0.50;99.90;;;;;;5051497;28;20041;-35
2022/04/03 01:26:06;;;;;;;3.60;1.50;;;0.50;99.90;;;;;;5052225;28;20053;-33
2022/04/03 01:28:31;;;;;;;3.63;1.97;;;0.50;99.90;;;;;;5039425;28;20051;-32
2022/04/03 01:30:57;;;;;;;4.87;1.80;;;0.50;99.90;;;;;;5052266;28;20409;-35
2022/04/03 01:33:23;;;;;;;3.37;1.70;;;0.50;99.90;;;;;;5052836;28;20385;-32
2022/04/03 01:35:49;;;;;;;4.53;1.33;;;0.50;99.90;;;;;;5052061;28;20390;-33
2022/04/03 01:38:15;;;;;;;3.13;1.50;;;0.60;99.90;;;;;;5035999;28;20040;-32
2022/04/03 01:40:41;;;;;;;4.97;1.70;;;0.50;99.90;;;;;;5051938;28;20376;-31
2022/04/03 01:43:08;;;;;;;4.80;1.73;;;0.60;99.90;;;;;;5050862;28;20140;-33
2022/04/03 01:45:36;;;;;;;2.53;1.37;;;0.60;99.90;;;;;;5052569;28;20573;-34
2022/04/03 01:48:03;;;;;;;4.13;1.80;;;0.60;99.90;;;;;;5038348;28;20412;-35
2022/04/03 01:50:29;;;;;;;4.70;1.77;;;0.60;99.90;;;;;;5051615;28;20044;-34
2022/04/03 01:52:54;;;;;;;3.83;1.20;;;0.60;99.90;;;;;;5051831;28;20059;-32
2022/04/03 01:55:20;;;;;;;2.47;1.40;;;0.60;99.90;;;;;;5053056;28;20186;-35
2022/04/03 01:57:46;;;;;;;3.27;1.23;;;0.60;99.90;;;;;;5034166;28;20048;-35
2022/04/03 02:00:12;;;;;;;6.40;1.40;;;0.60;99.90;;;;;;5049728;28;20479;-33
2022/04/03 02:02:41;;;;;;;1.80;1.10;;;0.70;99.90;;;;;;5047692;28;20080;-34
2022/04/03 02:05:08;;;;;;;2.10;1.37;;;0.70;99.90;;;;;;5052262;28;20044;-31
2022/04/03 02:07:34;;;;;;;2.23;1.17;;;0.70;99.90;;;;;;5036339;28;20078;-31
2022/04/03 02:10:00;;;;;;;5.10;1.23;;;0.80;99.90;;;;;;5055435;28;20052;-31
2022/04/03 02:12:26;;;;;;;2.93;1.10;;;0.80;99.90;;;;;;5045550;28;20367;-33
2022/04/03 02:14:52;;;;;;;4.03;1.57;;;0.80;99.90;;;;;;5052124;28;20044;-33
2022/04/03 02:17:18;;;;;;;4.07;1.20;;;0.90;99.90;;;;;;5034466;28;20066;-34
2022/04/03 02:19:44;;;;;;;2.63;1.30;;;0.90;99.90;;;;;;5051227;28;20094;-33
2022/04/03 02:22:09;;;;;;;2.13;1.23;;;0.90;99.90;;;;;;5050032;28;20063;-32
2022/04/03 02:24:35;;;;;;;3.30;1.13;;;1.00;99.90;;;;;;5052347;28;20052;-32
2022/04/03 02:27:01;;;;;;;4.13;1.40;;;1.00;99.90;;;;;;5036056;28;20055;-32
2022/04/03 02:29:26;;;;;;;3.47;0.90;;;1.00;99.90;;;;;;5052265;28;20049;-32
2022/04/03 02:31:52;;;;;;;5.20;1.30;;;1.00;99.90;;;;;;5047172;28;20052;-32
2022/04/03 02:34:18;;;;;;;3.50;1.17;;;1.10;99.90;;;;;;5050976;28;20081;-33
2022/04/03 02:36:45;;;;;;;3.37;1.10;;;1.10;99.90;;;;;;5038761;28;20067;-34
2022/04/03 02:39:14;;;;;;;2.67;1.20;;;1.10;99.90;;;;;;5054174;28;20037;-33
2022/04/03 02:41:40;;;;;;;2.27;1.20;;;1.10;99.90;;;;;;5050830;28;20063;-31
2022/04/03 02:44:05;;;;;;;3.53;1.20;;;1.10;99.90;;;;;;5048631;28;20049;-31
2022/04/03 02:46:31;;;;;;;7.23;1.33;;;1.20;99.90;;;;;;5039859;28;20979;-33
2022/04/03 02:48:57;;;;;;;2.67;1.10;;;1.20;99.90;;;;;;5046089;28;20060;-32
2022/04/03 02:51:23;;;;;;;2.70;1.27;;;1.20;99.90;;;;;;5051264;28;20325;-32
2022/04/03 02:53:49;;;;;;;3.13;1.23;;;1.20;99.90;;;;;;5050087;28;20080;-32
2022/04/03 02:56:15;;;;;;;5.30;1.40;;;1.30;99.90;;;;;;5044099;28;20238;-33
2022/04/03 02:58:41;;;;;;;2.50;1.13;;;1.30;99.90;;;;;;5046108;28;20583;-30
2022/04/03 03:01:07;;;;;;;3.37;1.13;;;1.30;99.90;;;;;;5050283;28;20543;-31
2022/04/03 03:03:33;;;;;;;2.57;1.30;;;1.30;99.90;;;;;;5053568;28;20072;-31
2022/04/03 03:05:59;;;;;;;3.53;1.10;;;1.30;99.90;;;;;;5051498;28;20139;-32
2022/04/03 03:08:25;;;;;;;2.67;1.10;;;1.30;99.90;;;;;;5033266;28;20736;-34
2022/04/03 03:10:51;;;;;;;2.97;1.37;;;1.30;99.90;;;;;;5048214;28;20067;-31
2022/04/03 03:13:16;;;;;;;1.47;0.90;;;1.30;99.90;;;;;;5050601;28;20110;-30
2022/04/03 03:15:42;;;;;;;3.33;1.00;;;1.40;99.90;;;;;;5050127;28;20136;-32
2022/04/03 03:18:08;;;;;;;2.97;1.20;;;1.40;99.90;;;;;;5035518;28;20094;-32
2022/04/03 03:20:34;;;;;;;2.37;0.90;;;1.40;99.90;;;;;;5048732;28;20496;-31
2022/04/03 03:23:00;;;;;;;2.80;0.80;;;1.40;99.90;;;;;;5046335;28;20052;-31
2022/04/03 03:25:27;;;;;;;1.93;0.87;;;1.40;99.90;;;;;;5048242;28;20053;-31
2022/04/03 03:27:52;;;;;;;5.27;1.00;;;1.40;99.90;;;;;;5031950;28;20123;-34
2022/04/03 03:30:18;;;;;;;2.20;1.00;;;1.40;99.90;;;;;;5051009;28;20067;-34
2022/04/03 03:32:44;;;;;;;3.70;1.03;;;1.40;99.90;;;;;;5049252;28;20123;-31
2022/04/03 03:35:10;;;;;;;3.23;0.80;;;1.40;99.90;;;;;;5047923;28;20124;-33
2022/04/03 03:37:37;;;;;;;2.27;0.90;;;1.40;99.90;;;;;;5035753;28;20052;-34
2022/04/03 03:40:04;;;;;;;2.37;1.10;;;1.50;99.90;;;;;;5050094;28;20804;-31
2022/04/03 03:42:29;;;;;;;3.30;0.80;;;1.40;99.90;;;;;;5048409;28;20053;-30
2022/04/03 03:44:55;;;;;;;3.33;1.03;;;1.40;99.90;;;;;;5050547;28;20283;-35
2022/04/03 03:47:21;;;;;;;2.13;0.87;;;1.30;99.90;;;;;;5033948;28;20078;-30
2022/04/03 03:49:46;;;;;;;2.47;1.10;;;1.30;99.90;;;;;;5047875;28;20056;-32
2022/04/03 03:52:12;;;;;;;4.30;1.20;;;1.30;99.90;;;;;;5050864;28;20051;-31
2022/04/03 03:54:38;;;;;;;2.50;1.00;;;1.30;99.90;;;;;;5049622;28;20115;-34
2022/04/03 03:57:04;;;;;;;2.43;1.10;;;1.30;99.90;;;;;;5032693;28;20084;-32
2022/04/03 03:59:29;;;;;;;5.73;1.17;;;1.30;99.90;;;;;;5050792;28;20043;-32
2022/04/03 04:01:56;;;;;;;2.50;1.43;;;1.30;99.90;;;;;;5046974;28;20057;-33
2022/04/03 04:04:21;;;;;;;3.47;1.70;;;1.30;99.90;;;;;;5046339;28;20511;-32
2022/04/03 04:06:48;;;;;;;5.10;2.00;;;1.30;99.90;;;;;;5034299;28;20136;-34
2022/04/03 04:09:14;;;;;;;6.73;2.00;;;1.40;99.90;;;;;;5050321;28;20095;-31
2022/04/03 04:11:40;;;;;;;3.67;1.97;;;1.30;99.90;;;;;;5049563;28;20076;-31
2022/04/03 04:14:06;;;;;;;4.73;1.43;;;1.30;99.90;;;;;;5042570;28;20511;-34
2022/04/03 04:16:31;;;;;;;3.73;1.50;;;1.30;99.90;;;;;;5026343;28;20941;-31
2022/04/03 04:18:57;;;;;;;2.67;1.57;;;1.20;99.90;;;;;;5036389;28;20055;-33
2022/04/03 04:21:23;;;;;;;4.33;1.70;;;1.20;99.90;;;;;;5042994;28;20700;-34
2022/04/03 04:23:48;;;;;;;4.17;1.63;;;1.20;99.90;;;;;;5040567;28;20490;-34
2022/04/03 04:26:15;;;;;;;4.23;1.90;;;1.20;99.90;;;;;;5042153;28;20036;-30
2022/04/03 04:28:41;;;;;;;5.40;1.90;;;1.20;99.90;;;;;;5045359;28;20520;-35
2022/04/03 04:31:07;;;;;;;5.70;1.67;;;1.20;99.90;;;;;;5049165;28;20055;-31
2022/04/03 04:33:33;;;;;;;3.87;1.67;;;1.20;99.90;;;;;;5051722;28;20060;-33
2022/04/03 04:35:59;;;;;;;4.57;1.83;;;1.20;99.90;;;;;;5053085;28;20153;-32
2022/04/03 04:38:26;;;;;;;4.37;1.50;;;1.20;99.90;;;;;;5037009;28;20052;-33
2022/04/03 04:40:51;;;;;;;4.83;1.80;;;1.10;99.90;;;;;;5053211;28;20053;-31
2022/04/03 04:43:17;;;;;;;4.43;1.87;;;1.10;99.90;;;;;;5053143;28;20052;-32
2022/04/03 04:45:43;;;;;;;5.30;2.00;;;1.00;99.90;;;;;;5051948;28;20502;-33
2022/04/03 04:48:08;;;;;;;4.17;1.87;;;1.00;99.90;;;;;;5034412;28;20801;-32
2022/04/03 04:50:34;;;;;;;5.93;2.23;;;1.00;99.90;;;;;;5054242;28;20048;-31
2022/04/03 04:53:00;;;;;;;4.73;1.87;;;0.90;99.90;;;;;;5052373;28;20533;-34
2022/04/03 04:55:26;;;;;;;4.40;1.97;;;0.90;99.90;;;;;;5050839;28;20458;-34
2022/04/03 04:57:55;;;;;;;3.23;1.93;;;0.80;99.90;;;;;;5036787;28;20587;-32
2022/04/03 05:00:22;;;;;;;4.97;1.80;;;0.80;99.90;;;;;;5056071;28;20040;-31
2022/04/03 05:02:49;;;;;;;4.10;1.87;;;0.80;99.90;;;;;;5051877;28;20357;-34
2022/04/03 05:05:17;;;;;;;6.47;2.30;;;0.70;99.90;;;;;;5050534;28;20068;-33
2022/04/03 05:07:45;;;;;;;4.50;2.00;;;0.70;99.90;;;;;;5035093;28;20743;-34
2022/04/03 05:10:16;;;;;;;4.90;1.97;;;0.70;99.90;;;;;;5052037;28;20102;-31
2022/04/03 05:12:43;;;;;;;3.03;1.90;;;0.60;99.90;;;;;;5051604;28;20037;-31
2022/04/03 05:15:12;;;;;;;3.07;1.77;;;0.60;99.90;;;;;;5052547;28;20443;-30
2022/04/03 05:17:43;;;;;;;6.37;1.83;;;0.60;99.90;;;;;;5035926;28;20099;-33
2022/04/03 05:20:11;;;;;;;3.17;1.67;;;0.60;99.90;;;;;;5052609;28;20166;-32
2022/04/03 05:22:38;;;;;;;3.73;1.80;;;0.50;99.90;;;;;;5054222;28;20201;-33
2022/04/03 05:25:05;;;;;;;3.13;1.93;;;0.50;99.90;;;;;;5054441;28;20044;-31
2022/04/03 05:27:31;;;;;;;3.23;2.10;;;0.50;99.90;;;;;;5038814;28;20037;-33
2022/04/03 05:29:57;;;;;;;4.03;1.87;;;0.50;99.90;;;;;;5052039;28;20057;-31
2022/04/03 05:32:31;;;;;;;4.73;1.90;;;0.50;99.90;;;;;;5048802;28;20052;-32
2022/04/03 05:34:58;;;;;;;7.63;2.23;;;0.50;99.90;;;;;;5049473;28;20061;-33
2022/04/03 05:37:24;;;;;;;8.43;2.20;;;0.50;99.90;;;;;;5033080;28;20077;-33
2022/04/03 05:39:51;;;;;;;4.60;1.60;;;0.50;99.90;;;;;;5053161;28;20048;-30
2022/04/03 05:42:20;;;;;;;5.67;1.80;;;0.50;99.90;;;;;;5052660;28;20044;-31
2022/04/03 05:44:47;;;;;;;5.07;2.10;;;0.50;99.90;;;;;;5050985;28;20041;-31
2022/04/03 05:47:16;;;;;;;4.50;1.90;;;0.50;99.90;;;;;;5036790;28;20144;-31
2022/04/03 05:49:42;;;;;;;6.57;2.07;;;0.50;99.90;;;;;;5048433;28;20403;-33
2022/04/03 05:52:07;;;;;;;5.97;2.10;;;0.50;99.90;;;;;;5052954;28;20048;-32
2022/04/03 05:54:33;;;;;;;6.07;1.97;;;0.50;99.90;;;;;;5054080;28;20045;-32
2022/04/03 05:56:59;;;;;;;4.97;2.10;;;0.50;99.90;;;;;;5037121;28;20083;-32
2022/04/03 05:59:25;;;;;;;3.70;1.80;;;0.60;99.90;;;;;;5051588;28;21157;-30
2022/04/03 06:01:50;;;;;;;3.40;1.53;;;0.60;99.90;;;;;;5051009;28;20048;-35
2022/04/03 06:04:16;;;;;;;4.60;1.97;;;0.60;99.90;;;;;;5050911;28;20048;-31
2022/04/03 06:06:42;;;;;;;6.63;2.07;;;0.70;99.90;;;;;;5037249;28;20040;-32
2022/04/03 06:09:08;;;;;;;3.97;1.80;;;0.70;99.90;;;;;;5048946;28;20048;-34
2022/04/03 06:11:34;;;;;;;4.47;1.60;;;0.70;99.90;;;;;;5056945;28;20586;-34
2022/04/03 06:14:00;;;;;;;8.93;1.73;;;0.80;99.90;;;;;;5051769;28;20504;-32
2022/04/03 06:16:26;;;;;;;6.00;1.90;;;0.90;99.90;;;;;;5037390;28;20515;-33
2022/04/03 06:18:53;;;;;;;5.60;1.97;;;0.90;99.90;;;;;;5042506;28;20544;-34
2022/04/03 06:21:19;;;;;;;8.30;1.60;;;1.00;99.90;;;;;;5052305;28;20087;-30
2022/04/03 06:23:45;;;;;;;3.80;1.70;;;1.10;99.90;;;;;;5050218;28;20463;-34
2022/04/03 06:26:10;;;;;;;3.90;1.30;;;1.10;99.90;;;;;;5043777;28;20037;-31
2022/04/03 06:28:36;;;;;;;4.27;1.47;;;1.20;99.90;;;;;;5048426;28;20045;-32
2022/04/03 06:31:02;;;;;;;2.57;1.33;;;1.30;99.90;;;;;;5049410;28;20561;-35
2022/04/03 06:33:28;;;;;;;5.37;1.60;;;1.40;99.90;;;;;;5051659;28;20436;-33
2022/04/03 06:35:54;;;;;;;8.73;1.57;;;1.50;99.90;;;;;;5051324;28;20448;-34
2022/04/03 06:38:20;;;;;;;5.43;1.30;;;1.60;99.90;;;;;;5037589;28;20083;-34
2022/04/03 06:41:04;;;;;;;4.47;1.80;;;1.80;99.90;;;;;;5051824;28;20092;-31
2022/04/03 06:43:30;;;;;;;3.60;1.13;;;1.90;99.90;;;;;;5048772;28;20056;-32
2022/04/03 06:45:57;;;;;;;5.83;1.30;;;2.00;99.90;;;;;;5051054;28;20454;-31
2022/04/03 06:48:24;;;;;;;7.77;1.40;;;2.10;99.90;;;;;;5034525;28;20069;-34
2022/04/03 06:50:49;;;;;;;6.27;1.30;;;2.20;99.90;;;;;;5051130;28;20037;-35
2022/04/03 06:53:15;;;;;;;3.20;1.20;;;2.30;99.90;;;;;;5050356;28;20048;-33
2022/04/03 06:55:41;;;;;;;4.93;1.13;;;2.50;99.90;;;;;;5049862;28;20429;-32
2022/04/03 06:58:07;;;;;;;5.10;1.30;;;2.50;99.90;;;;;;5034305;28;20143;-32
2022/04/03 07:00:37;;;;;;;7.57;1.10;;;2.60;99.90;;;;;;5050617;28;20075;-31
2022/04/03 07:03:02;;;;;;;3.93;1.10;;;2.70;99.90;;;;;;5044202;28;20033;-35
2022/04/03 07:05:28;;;;;;;4.60;0.97;;;2.80;99.90;;;;;;5047654;28;20135;-32
2022/04/03 07:07:54;;;;;;;4.60;1.27;;;2.90;99.90;;;;;;5029668;28;20052;-31
2022/04/03 07:10:20;;;;;;;5.03;1.20;;;3.00;99.90;;;;;;5048087;28;20040;-32
2022/04/03 07:12:46;;;;;;;4.87;1.47;;;3.10;99.90;;;;;;5038833;28;20045;-33
2022/04/03 07:15:13;;;;;;;4.07;1.10;;;3.20;99.90;;;;;;5044798;28;20045;-33
2022/04/03 07:17:43;;;;;;;6.00;1.33;;;3.20;99.90;;;;;;5026907;28;20125;-33
2022/04/03 07:20:13;;;;;;;6.73;1.27;;;3.30;99.90;;;;;;5045535;28;20044;-35
2022/04/03 07:22:40;;;;;;;5.10;1.40;;;3.40;99.90;;;;;;5044683;28;20037;-34
2022/04/03 07:25:06;;;;;;;7.03;0.97;;;3.40;99.90;;;;;;5046048;28;20155;-33
2022/04/03 07:27:32;;;;;;;5.23;0.93;;;3.50;99.90;;;;;;5014410;28;20037;-32
2022/04/03 07:29:59;;;;;;;4.27;0.93;;;3.50;99.90;;;;;;5044387;28;20056;-33
2022/04/03 07:32:24;;;;;;;1.67;0.70;;;3.60;99.90;;;;;;5045447;28;20102;-34
2022/04/03 07:34:50;;;;;;;5.13;0.83;;;3.60;99.90;;;;;;5043743;28;20448;-35
2022/04/03 07:37:15;;;;;;;5.70;1.03;;;3.70;99.90;;;;;;5028553;28;20060;-35
2022/04/03 07:39:41;;;;;;;4.97;0.70;;;3.70;99.90;;;;;;5045538;28;20530;-33
2022/04/03 07:42:07;;;;;;;3.47;0.83;;;3.90;99.90;;;;;;5044982;28;20549;-35
2022/04/03 07:44:33;;;;;;;4.90;1.17;;;3.90;99.90;;;;;;5046006;28;20518;-35
2022/04/03 07:46:58;;;;;;;1.90;0.80;;;3.90;99.90;;;;;;5027595;28;20052;-32
2022/04/03 07:49:24;;;;;;;8.93;0.90;;;4.00;99.90;;;;;;5044382;28;20044;-35
2022/04/03 07:51:50;;;;;;;2.83;0.87;;;4.10;99.90;;;;;;5044096;28;20549;-33
2022/04/03 07:54:16;;;;;;;4.40;1.00;;;4.20;99.90;;;;;;5044792;28;20059;-33
2022/04/03 07:56:42;;;;;;;5.57;1.00;;;4.20;99.90;;;;;;5030702;28;20052;-34
2022/04/03 07:59:07;;;;;;;7.20;1.37;;;4.30;99.90;;;;;;5043732;28;20142;-32
2022/04/03 08:01:34;;;;;;;5.90;1.07;;;4.40;99.90;;;;;;5045697;28;20041;-34
2022/04/03 08:04:00;;;;;;;6.30;1.10;;;4.50;99.90;;;;;;5038083;28;20079;-33
2022/04/03 08:06:26;;;;;;;5.73;1.23;;;4.50;99.90;;;;;;5034157;28;20632;-34
2022/04/03 08:08:52;;;;;;;7.80;0.87;;;4.60;99.90;;;;;;5037735;28;20534;-35
2022/04/03 08:11:18;;;;;;;5.80;0.90;;;4.70;99.90;;;;;;5044897;28;20082;-33
2022/04/03 08:13:45;;;;;;;5.60;0.90;;;4.80;99.90;;;;;;5042487;28;20049;-35
2022/04/03 08:16:11;;;;;;;8.70;1.20;;;4.90;99.90;;;;;;5036362;28;20432;-35
2022/04/03 08:18:36;;;;;;;3.07;0.77;;;5.00;99.90;;;;;;5034817;28;20033;-35
2022/04/03 08:21:03;;;;;;;3.00;0.70;;;5.00;99.90;;;;;;5040637;28;20045;-35
2022/04/03 08:23:28;;;;;;;4.37;0.80;;;5.20;99.90;;;;;;5044605;28;20056;-32
2022/04/03 08:25:54;;;;;;;3.80;0.90;;;5.10;99.90;;;;;;5044652;28;20404;-34
2022/04/03 08:28:22;;;;;;;5.87;1.27;;;5.20;99.90;;;;;;5024491;28;20059;-34
2022/04/03 08:30:48;;;;;;;4.60;0.60;;;5.30;99.90;;;;;;5039827;28;20049;-33
2022/04/03 08:33:13;;;;;;;4.33;0.80;;;5.40;99.90;;;;;;5049413;28;20036;-32
2022/04/03 08:35:40;;;;;;;5.57;0.80;;;5.40;99.90;;;;;;5040482;28;20049;-32
2022/04/03 08:38:10;;;;;;;3.70;0.50;;;5.50;99.90;;;;;;5024809;28;20059;-34
2022/04/03 08:40:36;;;;;;;4.73;0.83;;;5.50;99.90;;;;;;5042624;28;20512;-36
2022/04/03 08:43:04;;;;;;;3.17;0.70;;;5.60;99.90;;;;;;5039013;28;20043;-34
2022/04/03 08:45:30;;;;;;;6.07;0.90;;;5.60;99.90;;;;;;5043172;28;20053;-35
2022/04/03 08:47:58;;;;;;;2.80;0.60;;;5.70;99.90;;;;;;5026488;28;20052;-36
2022/04/03 08:50:30;;;;;;;3.07;0.63;;;5.70;99.90;;;;;;5044180;28;20131;-34
2022/04/03 08:52:59;;;;;;;3.75;0.73;;;5.80;99.90;;;;;;5040414;28;20645;-33
2022/04/03 08:55:25;;;;;;;6.43;0.53;;;5.90;99.90;;;;;;5044802;28;20045;-35
2022/04/03 08:57:51;;;;;;;4.70;0.60;;;6.00;99.90;;;;;;5025567;28;20048;-33
2022/04/03 09:00:18;;;;;;;4.17;0.67;;;6.00;99.90;;;;;;5044219;28;20133;-34
2022/04/03 09:02:47;;;;;;;6.57;0.80;;;6.00;99.90;;;;;;5037965;28;20049;-36
2022/04/03 09:05:14;;;;;;;2.30;0.40;;;6.00;99.90;;;;;;5041790;28;20116;-35
2022/04/03 09:07:41;;;;;;;3.87;0.60;;;6.00;99.90;;;;;;5026305;28;20051;-35
2022/04/03 09:10:08;;;;;;;3.03;0.60;;;6.00;99.90;;;;;;5047824;28;20080;-35
2022/04/03 09:12:41;;;;;;;5.17;0.70;;;6.10;99.90;;;;;;5053328;28;20137;-34
2022/04/03 09:15:12;;;;;;;2.37;0.60;;;6.10;99.90;;;;;;5052799;28;20773;-34
2022/04/03 09:17:44;;;;;;;5.95;0.40;;;6.20;99.90;;;;;;5034255;28;20037;-36
2022/04/03 09:20:15;;;;;;;4.20;0.53;;;6.30;99.90;;;;;;5047429;28;20072;-33
2022/04/03 09:22:43;;;;;;;;;;;6.30;99.90;;;;;;5046114;28;20044;-36
2022/04/03 09:25:13;;;;;;;2.97;0.70;;;6.30;99.90;;;;;;5044626;28;20610;-33
2022/04/03 09:27:50;;;;;;;1.97;0.57;;;6.40;99.90;;;;;;5024103;28;20045;-34
2022/04/03 09:30:17;;;;;;;2.77;0.33;;;6.40;99.90;;;;;;5040970;28;20136;-34
2022/04/03 09:32:50;;;;;;;3.33;0.43;;;6.50;99.90;;;;;;5044425;28;20045;-34
2022/04/03 09:35:20;;;;;;;4.60;0.57;;;6.60;99.90;;;;;;5043266;28;20139;-35
2022/04/03 09:38:15;;;;;;;3.50;0.43;;;6.70;99.90;;;;;;5027201;28;20056;-32
2022/04/03 09:40:47;;;;;;;3.30;0.43;;;6.80;99.90;;;;;;5043521;28;20280;-32
2022/04/03 09:43:21;;;;;;;3.10;0.30;;;6.90;99.90;;;;;;5043276;28;20041;-32
2022/04/03 09:45:58;;;;;;;4.23;0.73;;;7.00;99.90;;;;;;5042901;28;20533;-32
2022/04/03 09:48:27;;;;;;;4.43;0.60;;;7.10;99.90;;;;;;5036995;28;20048;-36
2022/04/03 09:51:11;;;;;;;1.33;0.27;;;7.30;99.90;;;;;;5045278;28;20099;-33
2022/04/03 09:53:50;;;;;;;3.17;0.40;;;7.20;99.90;;;;;;5045316;28;20503;-32
2022/04/03 09:56:31;;;;;;;1.57;0.30;;;7.20;99.90;;;;;;5032109;28;20136;-36
2022/04/03 09:59:00;;;;;;;;;;;7.20;99.90;;;;;;5039163;28;20389;-35
2022/04/03 10:01:38;;;;;;;3.60;0.57;;;7.20;99.90;;;;;;5041884;28;20275;-36
2022/04/03 10:04:09;;;;;;;1.43;0.40;;;7.20;99.90;;;;;;5038941;28;20045;-33
2022/04/03 10:06:36;;;;;;;1.50;0.40;;;7.10;99.90;;;;;;5029080;28;20052;-33
2022/04/03 10:09:02;;;;;;;2.87;0.57;;;7.10;99.90;;;;;;5039915;28;20045;-34
2022/04/03 10:11:29;;;;;;;4.67;0.50;;;7.00;99.90;;;;;;5042613;28;20531;-35
2022/04/03 10:13:55;;;;;;;2.57;0.47;;;7.10;99.90;;;;;;5043688;28;20541;-35
2022/04/03 10:16:22;;;;;;;3.37;0.47;;;7.20;99.90;;;;;;5035262;28;20045;-34
2022/04/03 10:18:49;;;;;;;3.40;0.60;;;7.30;99.90;;;;;;5017083;28;20140;-35
2022/04/03 10:21:40;;;;;;;1.37;0.50;;;7.40;99.90;;;;;;5042163;28;20128;-33
2022/04/03 10:24:15;;;;;;;1.77;0.40;;;7.40;99.90;;;;;;5045523;28;20643;-34
2022/04/03 10:26:46;;;;;;;2.50;0.40;;;7.40;99.90;;;;;;5029387;28;20367;-35
2022/04/03 10:29:13;;;;;;;1.60;0.57;;;7.40;99.90;;;;;;5052146;28;20036;-36
2022/04/03 10:31:53;;;;;;;3.53;0.53;;;7.50;99.90;;;;;;5053172;28;20634;-32
2022/04/03 10:34:20;;;;;;;4.23;0.70;;;7.70;99.90;;;;;;5050170;28;20057;-32
2022/04/03 10:36:49;;;;;;;2.10;0.70;;;7.60;99.90;;;;;;5036911;28;20060;-36
2022/04/03 10:39:23;;;;;;;1.70;0.40;;;7.60;99.90;;;;;;5052795;28;20049;-35
2022/04/03 10:41:48;;;;;;;3.70;0.40;;;7.70;99.90;;;;;;5050294;28;20393;-36
2022/04/03 10:44:18;;;;;;;2.63;0.77;;;7.70;99.90;;;;;;5052432;28;20045;-35
2022/04/03 10:47:02;;;;;;;4.87;0.80;;;7.70;99.90;;;;;;5038796;28;20118;-35
2022/04/03 10:50:04;;;;;;;5.13;0.77;;;7.60;99.90;;;;;;5043956;28;20052;-36
2022/04/03 10:52:35;;;;;;;1.90;0.60;;;7.60;99.90;;;;;;5025618;28;20045;-33
2022/04/03 10:55:02;;;;;;;1.55;0.50;;;7.60;99.90;;;;;;5047151;28;20045;-35
2022/04/03 10:57:42;;;;;;;3.33;0.50;;;7.60;99.90;;;;;;5036853;28;20399;-35
2022/04/03 11:00:14;;;;;;;3.67;0.70;;;7.60;99.90;;;;;;5052620;28;20779;-34
2022/04/03 11:02:42;;;;;;;;;;;7.50;99.90;;;;;;5048312;28;20041;-35
2022/04/03 11:05:29;;;;;;;5.70;0.63;;;7.50;99.90;;;;;;5047810;28;19928;-34
2022/04/03 11:08:16;;;;;;;4.00;0.53;;;7.50;99.90;;;;;;5031020;28;20044;-35
2022/04/03 11:10:54;;;;;;;3.73;0.77;;;7.50;99.90;;;;;;5049975;28;20517;-34
2022/04/03 11:13:29;;;;;;;3.77;0.67;;;7.50;99.90;;;;;;5052207;28;20607;-33
2022/04/03 11:15:55;;;;;;;4.63;0.80;;;7.40;99.90;;;;;;5045070;28;20558;-33
2022/04/03 11:18:34;;;;;;;2.67;0.60;;;7.40;99.90;;;;;;5036056;28;20045;-33
2022/04/03 11:21:22;;;;;;;2.80;0.53;;;7.40;99.90;;;;;;5053099;28;20419;-34
2022/04/03 11:24:01;;;;;;;2.70;0.50;;;7.40;99.90;;;;;;5049212;28;20076;-34
2022/04/03 11:26:28;;;;;;;1.77;0.43;;;7.30;99.90;;;;;;5037014;28;20513;-35
2022/04/03 11:28:54;;;;;;;3.80;0.50;;;7.30;99.90;;;;;;5044872;28;20336;-34
2022/04/03 11:31:20;;;;;;;4.17;0.70;;;7.30;99.90;;;;;;5048913;28;20051;-34
2022/04/03 11:33:47;;;;;;;1.70;0.40;;;7.30;99.90;;;;;;5049502;28;20403;-34
2022/04/03 11:36:18;;;;;;;4.03;0.30;;;7.30;99.90;;;;;;5041439;28;20059;-33
2022/04/03 11:38:46;;;;;;;0.93;0.10;;;7.30;99.90;;;;;;5046149;28;20059;-36
2022/04/03 11:41:22;;;;;;;1.53;0.10;;;7.20;99.90;;;;;;5051682;28;20048;-34
2022/04/03 11:44:08;;;;;;;1.47;0.30;;;7.20;99.90;;;;;;5049451;28;20135;-35
2022/04/03 11:46:42;;;;;;;1.37;0.30;;;7.20;99.90;;;;;;5039636;28;20316;-35
2022/04/03 11:49:29;;;;;;;3.10;0.40;;;7.20;99.90;;;;;;5047975;28;20629;-34
2022/04/03 11:52:09;;;;;;;1.23;0.37;;;7.30;99.90;;;;;;5046024;28;20129;-35
2022/04/03 11:54:36;;;;;;;3.57;0.60;;;7.40;99.90;;;;;;5049273;28;20045;-34
2022/04/03 11:57:05;;;;;;;4.10;0.60;;;7.50;99.90;;;;;;5035460;28;20436;-35
2022/04/03 11:59:35;;;;;;;7.03;0.90;;;7.50;99.90;;;;;;5047448;28;20041;-35
2022/04/03 12:02:13;;;;;;;5.50;0.60;;;7.50;99.90;;;;;;5048494;28;20045;-32
2022/04/03 12:04:43;;;;;;;4.40;0.60;;;7.70;99.90;;;;;;5048583;28;20087;-32
2022/04/03 12:07:13;;;;;;;1.80;0.30;;;7.70;99.90;;;;;;4976235;28;21076;-33
2022/04/03 12:09:41;;;;;;;3.93;0.73;;;7.70;99.90;;;;;;5040781;28;20128;-36
2022/04/03 12:12:08;;;;;;;1.97;0.50;;;7.70;99.90;;;;;;5044295;28;20069;-35
2022/04/03 12:14:36;;;;;;;4.40;1.00;;;7.70;99.90;;;;;;5046651;28;20040;-35
2022/04/03 12:17:06;;;;;;;2.23;0.70;;;7.80;99.90;;;;;;5011241;28;20051;-33
2022/04/03 12:19:39;;;;;;;3.17;1.07;;;7.90;99.90;;;;;;5047047;28;20041;-35
2022/04/03 12:22:08;;;;;;;3.50;0.60;;;7.80;99.90;;;;;;5046362;28;21535;-33
2022/04/03 12:24:36;;;;;;;2.70;0.40;;;7.90;99.90;;;;;;5048899;28;20045;-34
2022/04/03 12:27:22;;;;;;;1.83;0.50;;;7.90;99.90;;;;;;5030209;28;20535;-36
2022/04/03 12:29:52;;;;;;;3.63;0.50;;;8.00;99.90;;;;;;5038479;28;20429;-36
2022/04/03 12:32:35;;;;;;;2.80;0.40;;;8.00;99.90;;;;;;5044879;28;20049;-35
2022/04/03 12:35:01;;;;;;;4.33;0.40;;;8.00;99.90;;;;;;5047931;28;20071;-33
2022/04/03 12:37:36;;;;;;;5.87;0.60;;;8.00;99.90;;;;;;5027277;28;20151;-36
2022/04/03 12:40:07;;;;;;;2.40;0.50;;;8.00;99.90;;;;;;5054894;28;20045;-34
2022/04/03 12:42:33;;;;;;;2.42;0.40;;;7.90;99.90;;;;;;5050968;28;20094;-34
2022/04/03 12:45:06;;;;;;;3.17;0.50;;;7.90;99.90;;;;;;5049871;28;20045;-35
2022/04/03 12:47:40;;;;;;;7.73;0.70;;;7.80;99.90;;;;;;5035838;28;20064;-36
2022/04/03 12:50:06;;;;;;;3.67;0.50;;;7.80;99.90;;;;;;5049825;28;20078;-34
2022/04/03 12:52:42;;;;;;;5.23;0.63;;;7.80;99.90;;;;;;5050269;28;20048;-35
2022/04/03 12:55:23;;;;;;;3.47;0.50;;;7.70;99.90;;;;;;5044895;28;20141;-36
2022/04/03 13:01:06;;;;;;;1.80;0.53;;;8.00;99.90;;;;;;5047400;28;20078;-34
2022/04/03 13:03:36;;;;;;;6.63;0.63;;;8.00;99.90;;;;;;5028541;28;20048;-33
2022/04/03 13:06:08;;;;;;;3.80;0.57;;;8.10;99.90;;;;;;5049680;28;20074;-33